createdAt,value
2023-03-21T00:00:00.583Z,7.0
2023-03-21T00:01:01.118Z,7.0
2023-03-21T00:02:00.593Z,7.0
2023-03-21T00:03:00.649Z,7.0
2023-03-21T00:04:01.485Z,7.0
2023-03-21T00:05:09.456Z,7.0
2023-03-21T00:06:04.412Z,7.0
2023-03-21T00:07:00.796Z,7.0
2023-03-21T00:08:02.344Z,7.0
2023-03-21T00:09:00.568Z,7.0
2023-03-21T00:10:12.513Z,7.1
2023-03-21T00:11:01.785Z,7.1
2023-03-21T00:12:00.591Z,7.1
2023-03-21T00:13:00.601Z,7.1
2023-03-21T00:14:00.592Z,7.1
2023-03-21T00:15:00.585Z,7.1
2023-03-21T00:17:00.628Z,7.1
2023-03-21T00:18:00.627Z,7.1
2023-03-21T00:19:01.272Z,7.1
2023-03-21T00:20:01.318Z,7.8
2023-03-21T00:21:35.305Z,7.8
2023-03-21T00:22:07.474Z,7.8
2023-03-21T00:23:00.596Z,7.8
2023-03-21T00:24:00.595Z,7.8
2023-03-21T00:25:00.918Z,7.8
2023-03-21T00:26:00.854Z,7.8
2023-03-21T00:27:26.260Z,7.8
2023-03-21T00:28:07.858Z,7.8
2023-03-21T00:29:00.644Z,7.8
2023-03-21T00:30:00.625Z,7.8
2023-03-21T00:31:00.597Z,8.1
2023-03-21T00:32:00.767Z,8.1
2023-03-21T00:33:05.898Z,8.1
2023-03-21T00:34:00.848Z,8.1
2023-03-21T00:35:18.695Z,8.1
2023-03-21T00:36:05.236Z,8.1
2023-03-21T00:37:00.697Z,8.1
2023-03-21T00:38:07.859Z,8.1
2023-03-21T00:39:00.806Z,8.1
2023-03-21T00:40:01.108Z,8.1
2023-03-21T00:41:10.951Z,7.6
2023-03-21T00:42:01.413Z,7.6
2023-03-21T00:43:00.738Z,7.6
2023-03-21T00:44:00.766Z,7.6
2023-03-21T00:45:01.025Z,7.6
2023-03-21T00:46:00.726Z,7.6
2023-03-21T00:48:00.828Z,7.6
2023-03-21T00:49:00.645Z,7.6
2023-03-21T00:50:00.591Z,7.6
2023-03-21T00:51:00.812Z,7.4
2023-03-21T00:52:14.740Z,7.4
2023-03-21T00:53:00.672Z,7.4
2023-03-21T00:54:00.735Z,7.4
2023-03-21T00:55:00.597Z,7.4
2023-03-21T00:56:00.587Z,7.4
2023-03-21T00:57:01.842Z,7.4
2023-03-21T00:58:02.424Z,7.4
2023-03-21T00:59:00.615Z,7.4
2023-03-21T01:00:00.627Z,7.4
2023-03-21T01:01:00.645Z,7.0
2023-03-21T01:02:00.768Z,7.0
2023-03-21T01:03:08.486Z,7.0
2023-03-21T01:04:01.161Z,7.0
2023-03-21T01:05:00.742Z,7.0
2023-03-21T01:06:00.614Z,7.0
2023-03-21T01:07:00.619Z,7.0
2023-03-21T01:08:01.832Z,7.0
2023-03-21T01:09:00.569Z,7.0
2023-03-21T01:10:00.633Z,7.0
2023-03-21T01:11:02.622Z,7.1
2023-03-21T01:12:00.648Z,7.1
2023-03-21T01:13:00.635Z,7.1
2023-03-21T01:14:14.656Z,7.1
2023-03-21T01:15:00.576Z,7.1
2023-03-21T01:16:00.969Z,7.1
2023-03-21T01:17:00.579Z,7.1
2023-03-21T01:18:00.928Z,7.1
2023-03-21T01:19:02.074Z,7.1
2023-03-21T01:20:00.604Z,7.1
2023-03-21T01:21:01.143Z,8.0
2023-03-21T01:22:00.772Z,8.0
2023-03-21T01:23:00.988Z,8.0
2023-03-21T01:24:00.802Z,8.0
2023-03-21T01:25:12.151Z,8.0
2023-03-21T01:26:00.636Z,8.0
2023-03-21T01:27:01.312Z,8.0
2023-03-21T01:28:00.622Z,8.0
2023-03-21T01:29:00.675Z,8.0
2023-03-21T01:30:00.629Z,8.0
2023-03-21T01:31:01.538Z,7.8
2023-03-21T01:32:00.537Z,7.8
2023-03-21T01:33:00.656Z,7.8
2023-03-21T01:34:00.647Z,7.8
2023-03-21T01:35:00.640Z,7.8
2023-03-21T01:36:12.110Z,7.8
2023-03-21T01:37:00.676Z,7.8
2023-03-21T01:38:00.685Z,7.8
2023-03-21T01:39:00.634Z,7.8
2023-03-21T01:40:00.517Z,7.8
2023-03-21T01:41:01.128Z,10.6
2023-03-21T01:42:00.585Z,10.6
2023-03-21T01:43:00.523Z,10.6
2023-03-21T01:44:00.664Z,10.6
2023-03-21T01:45:02.104Z,10.6
2023-03-21T01:46:10.551Z,10.6
2023-03-21T01:47:10.582Z,10.6
2023-03-21T01:48:00.558Z,10.6
2023-03-21T01:49:06.047Z,10.6
2023-03-21T01:50:02.817Z,10.6
2023-03-21T01:51:00.576Z,9.0
2023-03-21T01:52:12.280Z,9.0
2023-03-21T01:53:00.557Z,9.0
2023-03-21T01:54:00.935Z,9.0
2023-03-21T01:55:01.444Z,9.0
2023-03-21T01:56:03.014Z,9.0
2023-03-21T01:57:02.903Z,9.0
2023-03-21T01:58:06.402Z,9.0
2023-03-21T01:59:03.933Z,9.0
2023-03-21T02:00:02.041Z,9.0
2023-03-21T02:01:01.230Z,9.6
2023-03-21T02:02:02.802Z,9.6
2023-03-21T02:03:11.511Z,9.6
2023-03-21T02:04:00.811Z,9.6
2023-03-21T02:05:01.670Z,9.6
2023-03-21T02:06:04.550Z,9.6
2023-03-21T02:07:06.457Z,9.6
2023-03-21T02:08:00.610Z,9.6
2023-03-21T02:09:02.832Z,9.6
2023-03-21T02:10:02.114Z,9.6
2023-03-21T02:11:00.583Z,9.5
2023-03-21T02:12:00.933Z,9.5
2023-03-21T02:13:02.508Z,9.5
2023-03-21T02:14:06.134Z,9.5
2023-03-21T02:15:00.789Z,9.5
2023-03-21T02:16:04.870Z,9.5
2023-03-21T02:17:05.761Z,9.5
2023-03-21T02:18:04.172Z,9.5
2023-03-21T02:19:07.919Z,9.5
2023-03-21T02:20:00.578Z,9.5
2023-03-21T02:21:01.566Z,8.0
2023-03-21T02:22:03.940Z,8.0
2023-03-21T02:23:10.415Z,8.0
2023-03-21T02:24:07.903Z,8.0
2023-03-21T02:25:21.293Z,8.0
2023-03-21T02:26:10.430Z,8.0
2023-03-21T02:27:10.475Z,8.0
2023-03-21T02:28:10.448Z,8.0
2023-03-21T02:29:06.630Z,8.0
2023-03-21T02:30:08.791Z,8.0
2023-03-21T02:31:06.587Z,9.6
2023-03-21T02:32:16.197Z,9.6
2023-03-21T02:33:01.589Z,9.6
2023-03-21T02:34:03.957Z,9.6
2023-03-21T02:35:00.867Z,9.6
2023-03-21T02:36:13.582Z,9.6
2023-03-21T02:37:04.961Z,9.6
2023-03-21T02:38:05.292Z,9.6
2023-03-21T02:39:00.504Z,9.6
2023-03-21T02:40:00.554Z,9.6
2023-03-21T02:41:18.372Z,9.6
2023-03-21T02:42:04.911Z,9.6
2023-03-21T02:43:07.209Z,9.6
2023-03-21T02:44:05.761Z,9.6
2023-03-21T02:45:04.726Z,9.6
2023-03-21T02:46:04.408Z,9.6
2023-03-21T02:47:06.724Z,9.6
2023-03-21T02:48:04.560Z,9.6
2023-03-21T02:49:04.224Z,9.6
2023-03-21T02:50:00.558Z,9.6
2023-03-21T02:51:01.857Z,8.6
2023-03-21T02:52:13.578Z,8.6
2023-03-21T02:53:02.459Z,8.6
2023-03-21T02:54:28.292Z,8.6
2023-03-21T02:55:01.165Z,8.6
2023-03-21T02:56:00.985Z,8.6
2023-03-21T02:57:01.496Z,8.6
2023-03-21T02:58:11.820Z,8.6
2023-03-21T02:59:01.695Z,8.6
2023-03-21T03:00:10.569Z,8.6
2023-03-21T03:01:00.614Z,9.4
2023-03-21T03:02:01.122Z,9.4
2023-03-21T03:03:09.619Z,9.4
2023-03-21T03:04:00.652Z,9.4
2023-03-21T03:05:00.689Z,9.4
2023-03-21T03:06:01.646Z,9.4
2023-03-21T03:07:10.439Z,9.4
2023-03-21T03:08:08.531Z,9.4
2023-03-21T03:09:02.910Z,9.4
2023-03-21T03:10:10.445Z,9.4
2023-03-21T03:11:00.521Z,9.2
2023-03-21T03:12:10.438Z,9.2
2023-03-21T03:13:01.538Z,9.2
2023-03-21T03:14:31.518Z,9.2
2023-03-21T03:15:09.424Z,9.2
2023-03-21T03:16:00.666Z,9.2
2023-03-21T03:17:10.397Z,9.2
2023-03-21T03:18:10.438Z,9.2
2023-03-21T03:19:00.660Z,9.2
2023-03-21T03:20:16.567Z,9.2
2023-03-21T03:21:07.586Z,11.5
2023-03-21T03:22:05.766Z,11.5
2023-03-21T03:23:03.936Z,11.5
2023-03-21T03:24:06.068Z,11.5
2023-03-21T03:25:16.340Z,11.5
2023-03-21T03:26:03.609Z,11.5
2023-03-21T03:27:06.784Z,11.5
2023-03-21T03:28:02.744Z,11.5
2023-03-21T03:29:06.646Z,11.5
2023-03-21T03:30:02.065Z,11.5
2023-03-21T03:31:09.076Z,9.7
2023-03-21T03:32:04.196Z,9.7
2023-03-21T03:33:02.117Z,9.7
2023-03-21T03:34:04.695Z,9.7
2023-03-21T03:35:02.054Z,9.7
2023-03-21T03:36:06.757Z,9.7
2023-03-21T03:37:03.098Z,9.7
2023-03-21T03:38:03.582Z,9.7
2023-03-21T03:39:03.202Z,9.7
2023-03-21T03:40:04.025Z,9.7
2023-03-21T03:41:04.019Z,10.8
2023-03-21T03:42:15.408Z,10.8
2023-03-21T03:43:03.880Z,10.8
2023-03-21T03:44:01.037Z,10.8
2023-03-21T03:45:01.362Z,10.8
2023-03-21T03:46:05.352Z,10.8
2023-03-21T03:47:03.847Z,10.8
2023-03-21T03:48:01.630Z,10.8
2023-03-21T03:49:03.995Z,10.8
2023-03-21T03:50:06.375Z,10.8
2023-03-21T03:51:08.096Z,12.3
2023-03-21T03:52:10.428Z,12.3
2023-03-21T03:53:16.171Z,12.3
2023-03-21T03:54:04.007Z,12.3
2023-03-21T03:55:00.936Z,12.3
2023-03-21T03:56:00.796Z,12.3
2023-03-21T03:57:00.622Z,12.3
2023-03-21T03:58:01.234Z,12.3
2023-03-21T03:59:01.059Z,12.3
2023-03-21T04:00:00.685Z,12.3
2023-03-21T04:01:00.576Z,11.3
2023-03-21T04:02:00.672Z,11.3
2023-03-21T04:03:00.714Z,11.3
2023-03-21T04:04:12.250Z,11.3
2023-03-21T04:05:00.549Z,11.3
2023-03-21T04:06:00.596Z,11.3
2023-03-21T04:07:00.515Z,11.3
2023-03-21T04:08:00.585Z,11.3
2023-03-21T04:09:03.432Z,11.3
2023-03-21T04:10:00.530Z,11.3
2023-03-21T04:11:01.032Z,12.4
2023-03-21T04:12:00.584Z,12.4
2023-03-21T04:13:00.546Z,12.4
2023-03-21T04:14:00.561Z,12.4
2023-03-21T04:15:10.474Z,12.4
2023-03-21T04:16:00.614Z,12.4
2023-03-21T04:17:00.567Z,12.4
2023-03-21T04:18:00.590Z,12.4
2023-03-21T04:19:00.856Z,12.4
2023-03-21T04:20:10.814Z,12.4
2023-03-21T04:21:00.565Z,10.9
2023-03-21T04:22:00.677Z,10.9
2023-03-21T04:23:00.549Z,10.9
2023-03-21T04:24:00.520Z,10.9
2023-03-21T04:25:00.714Z,10.9
2023-03-21T04:26:00.539Z,10.9
2023-03-21T04:27:00.540Z,10.9
2023-03-21T04:28:01.015Z,10.9
2023-03-21T04:29:01.462Z,10.9
2023-03-21T04:30:00.602Z,10.9
2023-03-21T04:31:06.838Z,10.4
2023-03-21T04:32:00.613Z,10.4
2023-03-21T04:33:00.721Z,10.4
2023-03-21T04:34:01.263Z,10.4
2023-03-21T04:35:00.586Z,10.4
2023-03-21T04:36:00.599Z,10.4
2023-03-21T04:37:00.549Z,10.4
2023-03-21T04:38:00.537Z,10.4
2023-03-21T04:39:00.575Z,10.4
2023-03-21T04:40:01.124Z,10.4
2023-03-21T04:41:00.654Z,11.4
2023-03-21T04:42:00.548Z,11.4
2023-03-21T04:43:00.656Z,11.4
2023-03-21T04:44:00.647Z,11.4
2023-03-21T04:45:01.190Z,11.4
2023-03-21T04:46:00.646Z,11.4
2023-03-21T04:47:00.591Z,11.4
2023-03-21T04:48:00.667Z,11.4
2023-03-21T04:49:00.928Z,11.4
2023-03-21T04:50:00.575Z,11.4
2023-03-21T04:51:00.536Z,11.2
2023-03-21T04:52:00.573Z,11.2
2023-03-21T04:53:00.540Z,11.2
2023-03-21T04:54:00.570Z,11.2
2023-03-21T04:55:00.673Z,11.2
2023-03-21T04:56:00.721Z,11.2
2023-03-21T04:57:00.541Z,11.2
2023-03-21T04:58:00.577Z,11.2
2023-03-21T04:59:02.702Z,11.2
2023-03-21T05:00:00.989Z,11.2
2023-03-21T05:01:00.722Z,11.7
2023-03-21T05:02:00.578Z,11.7
2023-03-21T05:03:00.574Z,11.7
2023-03-21T05:04:02.247Z,11.7
2023-03-21T05:05:00.629Z,11.7
2023-03-21T05:06:00.753Z,11.7
2023-03-21T05:07:01.215Z,11.7
2023-03-21T05:08:00.596Z,11.7
2023-03-21T05:09:01.052Z,11.7
2023-03-21T05:10:02.411Z,11.7
2023-03-21T05:11:01.234Z,11.7
2023-03-21T05:12:00.604Z,11.7
2023-03-21T05:13:00.596Z,11.7
2023-03-21T05:14:00.551Z,11.7
2023-03-21T05:15:00.742Z,11.7
2023-03-21T05:16:00.537Z,11.7
2023-03-21T05:17:00.760Z,11.7
2023-03-21T05:18:00.585Z,11.7
2023-03-21T05:19:01.301Z,11.7
2023-03-21T05:20:00.579Z,11.7
2023-03-21T05:21:00.584Z,11.4
2023-03-21T05:22:02.908Z,11.4
2023-03-21T05:23:00.753Z,11.4
2023-03-21T05:24:00.584Z,11.4
2023-03-21T05:25:00.572Z,11.4
2023-03-21T05:26:00.569Z,11.4
2023-03-21T05:27:01.621Z,11.4
2023-03-21T05:28:01.003Z,11.4
2023-03-21T05:29:00.606Z,11.4
2023-03-21T05:30:01.235Z,11.4
2023-03-21T05:31:00.850Z,11.3
2023-03-21T05:32:00.941Z,11.3
2023-03-21T05:33:00.543Z,11.3
2023-03-21T05:34:00.888Z,11.3
2023-03-21T05:35:00.841Z,11.3
2023-03-21T05:36:00.567Z,11.3
2023-03-21T05:37:00.792Z,11.3
2023-03-21T05:38:00.576Z,11.3
2023-03-21T05:39:00.939Z,11.3
2023-03-21T05:40:00.603Z,11.3
2023-03-21T05:41:00.601Z,11.6
2023-03-21T05:42:00.543Z,11.6
2023-03-21T05:43:00.544Z,11.6
2023-03-21T05:44:00.579Z,11.6
2023-03-21T05:45:00.582Z,11.6
2023-03-21T05:46:00.559Z,11.6
2023-03-21T05:47:00.547Z,11.6
2023-03-21T05:48:00.640Z,11.6
2023-03-21T05:49:00.581Z,11.6
2023-03-21T05:50:00.664Z,11.6
2023-03-21T05:51:01.172Z,12.9
2023-03-21T05:52:00.556Z,12.9
2023-03-21T05:53:00.584Z,12.9
2023-03-21T05:54:00.544Z,12.9
2023-03-21T05:55:00.571Z,12.9
2023-03-21T05:56:00.529Z,12.9
2023-03-21T05:57:00.613Z,12.9
2023-03-21T05:58:00.571Z,12.9
2023-03-21T05:59:00.588Z,12.9
2023-03-21T06:00:00.874Z,12.9
2023-03-21T06:01:00.587Z,13.5
2023-03-21T06:02:00.601Z,13.5
2023-03-21T06:03:00.591Z,13.5
2023-03-21T06:04:00.657Z,13.5
2023-03-21T06:05:00.552Z,13.5
2023-03-21T06:06:00.538Z,13.5
2023-03-21T06:07:00.596Z,13.5
2023-03-21T06:08:00.600Z,13.5
2023-03-21T06:09:00.582Z,13.5
2023-03-21T06:10:00.640Z,13.5
2023-03-21T06:11:00.868Z,13.0
2023-03-21T06:12:00.637Z,13.0
2023-03-21T06:13:00.586Z,13.0
2023-03-21T06:14:00.600Z,13.0
2023-03-21T06:15:00.561Z,13.0
2023-03-21T06:16:00.650Z,13.0
2023-03-21T06:17:00.622Z,13.0
2023-03-21T06:18:00.579Z,13.0
2023-03-21T06:19:00.568Z,13.0
2023-03-21T06:20:00.815Z,13.0
2023-03-21T06:21:00.571Z,14.0
2023-03-21T06:22:00.671Z,14.0
2023-03-21T06:23:00.564Z,14.0
2023-03-21T06:24:00.592Z,14.0
2023-03-21T06:25:00.892Z,14.0
2023-03-21T06:26:00.531Z,14.0
2023-03-21T06:27:02.817Z,14.0
2023-03-21T06:28:00.548Z,14.0
2023-03-21T06:29:00.572Z,14.0
2023-03-21T06:30:00.882Z,14.0
2023-03-21T06:31:00.645Z,13.9
2023-03-21T06:32:00.606Z,13.9
2023-03-21T06:33:00.592Z,13.9
2023-03-21T06:34:00.661Z,13.9
2023-03-21T06:35:00.566Z,13.9
2023-03-21T06:36:00.604Z,13.9
2023-03-21T06:37:00.530Z,13.9
2023-03-21T06:38:00.551Z,13.9
2023-03-21T06:39:00.566Z,13.9
2023-03-21T06:40:00.600Z,13.9
2023-03-21T06:41:00.559Z,14.0
2023-03-21T06:42:00.648Z,14.0
2023-03-21T06:43:00.563Z,14.0
2023-03-21T06:44:00.622Z,14.0
2023-03-21T06:45:00.627Z,14.0
2023-03-21T06:46:00.588Z,14.0
2023-03-21T06:47:00.824Z,14.0
2023-03-21T06:48:00.600Z,14.0
2023-03-21T06:49:00.586Z,14.0
2023-03-21T06:50:00.572Z,14.0
2023-03-21T06:51:00.561Z,13.2
2023-03-21T06:52:00.565Z,13.2
2023-03-21T06:53:00.616Z,13.2
2023-03-21T06:54:00.566Z,13.2
2023-03-21T06:55:00.600Z,13.2
2023-03-21T06:56:00.694Z,13.2
2023-03-21T06:57:00.906Z,13.2
2023-03-21T06:58:00.612Z,13.2
2023-03-21T06:59:00.553Z,13.2
2023-03-21T07:00:00.578Z,13.2
2023-03-21T07:01:00.790Z,13.2
2023-03-21T07:02:00.793Z,12.7
2023-03-21T07:03:00.575Z,12.7
2023-03-21T07:04:00.657Z,12.7
2023-03-21T07:05:00.595Z,12.7
2023-03-21T07:06:05.258Z,12.7
2023-03-21T07:07:00.745Z,12.7
2023-03-21T07:08:00.573Z,12.7
2023-03-21T07:09:00.967Z,12.7
2023-03-21T07:10:01.335Z,12.7
2023-03-21T07:11:00.546Z,11.3
2023-03-21T07:12:00.576Z,11.3
2023-03-21T07:13:00.612Z,11.3
2023-03-21T07:14:00.550Z,11.3
2023-03-21T07:15:01.580Z,11.3
2023-03-21T07:16:01.012Z,11.3
2023-03-21T07:17:00.578Z,11.3
2023-03-21T07:18:00.617Z,11.3
2023-03-21T07:19:00.603Z,11.3
2023-03-21T07:20:00.602Z,11.3
2023-03-21T07:21:00.598Z,9.9
2023-03-21T07:22:00.544Z,9.9
2023-03-21T07:23:00.549Z,9.9
2023-03-21T07:24:00.571Z,9.9
2023-03-21T07:25:05.215Z,9.9
2023-03-21T07:26:00.952Z,9.9
2023-03-21T07:27:00.607Z,9.9
2023-03-21T07:28:00.561Z,9.9
2023-03-21T07:29:00.749Z,9.9
2023-03-21T07:30:00.583Z,9.9
2023-03-21T07:31:02.610Z,7.7
2023-03-21T07:32:00.577Z,7.7
2023-03-21T07:33:00.575Z,7.7
2023-03-21T07:34:00.570Z,7.7
2023-03-21T07:35:01.780Z,7.7
2023-03-21T07:36:01.198Z,7.7
2023-03-21T07:37:00.592Z,7.7
2023-03-21T07:38:00.703Z,7.7
2023-03-21T07:39:00.575Z,7.7
2023-03-21T07:40:00.805Z,7.7
2023-03-21T07:41:00.579Z,7.3
2023-03-21T07:42:01.355Z,7.3
2023-03-21T07:44:00.585Z,7.3
2023-03-21T07:45:00.555Z,7.3
2023-03-21T07:46:00.631Z,7.3
2023-03-21T07:47:00.552Z,7.3
2023-03-21T07:48:01.077Z,7.3
2023-03-21T07:49:00.575Z,7.3
2023-03-21T07:50:00.839Z,7.3
2023-03-21T07:51:00.599Z,5.8
2023-03-21T07:52:00.746Z,5.8
2023-03-21T07:53:00.614Z,5.8
2023-03-21T07:54:00.832Z,5.8
2023-03-21T07:55:00.555Z,5.8
2023-03-21T07:56:00.589Z,5.8
2023-03-21T07:57:00.662Z,5.8
2023-03-21T07:58:01.178Z,5.8
2023-03-21T07:59:00.569Z,5.8
2023-03-21T08:00:00.590Z,5.8
2023-03-21T08:01:00.597Z,5.1
2023-03-21T08:02:00.959Z,5.1
2023-03-21T08:03:00.739Z,5.1
2023-03-21T08:04:00.553Z,5.1
2023-03-21T08:05:00.575Z,5.1
2023-03-21T08:06:00.572Z,5.1
2023-03-21T08:07:00.516Z,5.1
2023-03-21T08:08:00.597Z,5.1
2023-03-21T08:09:00.562Z,5.1
2023-03-21T08:10:00.568Z,5.1
2023-03-21T08:11:00.573Z,2.7
2023-03-21T08:12:00.588Z,2.7
2023-03-21T08:13:00.883Z,2.7
2023-03-21T08:14:00.718Z,2.7
2023-03-21T08:15:01.320Z,2.7
2023-03-21T08:16:00.554Z,2.7
2023-03-21T08:17:00.623Z,2.7
2023-03-21T08:18:00.567Z,2.7
2023-03-21T08:19:00.552Z,2.7
2023-03-21T08:20:00.596Z,2.7
2023-03-21T08:21:00.581Z,1.9
2023-03-21T08:22:00.580Z,1.9
2023-03-21T08:23:00.586Z,1.9
2023-03-21T08:24:00.646Z,1.9
2023-03-21T08:25:00.873Z,1.9
2023-03-21T08:26:00.629Z,1.9
2023-03-21T08:27:00.891Z,1.9
2023-03-21T08:28:00.523Z,1.9
2023-03-21T08:29:00.638Z,1.9
2023-03-21T08:30:00.938Z,1.9
2023-03-21T08:31:00.588Z,1.9
2023-03-21T08:32:00.544Z,2.8
2023-03-21T08:33:01.529Z,2.8
2023-03-21T08:34:00.605Z,2.8
2023-03-21T08:35:00.970Z,2.8
2023-03-21T08:36:00.580Z,2.8
2023-03-21T08:37:00.597Z,2.8
2023-03-21T08:38:02.410Z,2.8
2023-03-21T08:39:00.576Z,2.8
2023-03-21T08:40:00.642Z,2.8
2023-03-21T08:41:00.690Z,2.8
2023-03-21T08:42:00.589Z,1.9
2023-03-21T08:43:00.732Z,1.9
2023-03-21T08:44:00.710Z,1.9
2023-03-21T08:45:00.551Z,1.9
2023-03-21T08:46:00.755Z,1.9
2023-03-21T08:47:00.586Z,1.9
2023-03-21T08:48:00.697Z,1.9
2023-03-21T08:49:00.615Z,1.9
2023-03-21T08:50:00.585Z,1.9
2023-03-21T08:51:00.537Z,1.9
2023-03-21T08:52:00.611Z,1.8
2023-03-21T08:53:00.574Z,1.8
2023-03-21T08:54:00.592Z,1.8
2023-03-21T08:55:00.565Z,1.8
2023-03-21T08:56:00.564Z,1.8
2023-03-21T08:57:00.639Z,1.8
2023-03-21T08:58:00.585Z,1.8
2023-03-21T08:59:00.539Z,1.8
2023-03-21T09:00:00.641Z,1.8
2023-03-21T09:01:00.557Z,1.8
2023-03-21T09:02:00.615Z,1.2
2023-03-21T09:03:00.553Z,1.2
2023-03-21T09:04:00.580Z,1.2
2023-03-21T09:05:00.661Z,1.2
2023-03-21T09:06:00.570Z,1.2
2023-03-21T09:07:00.574Z,1.2
2023-03-21T09:08:00.769Z,1.2
2023-03-21T09:09:00.684Z,1.2
2023-03-21T09:10:19.912Z,1.2
2023-03-21T09:11:00.595Z,1.2
2023-03-21T09:12:00.652Z,1.5
2023-03-21T09:13:00.576Z,1.5
2023-03-21T09:14:00.585Z,1.5
2023-03-21T09:15:00.538Z,1.5
2023-03-21T09:16:00.614Z,1.5
2023-03-21T09:17:00.632Z,1.5
2023-03-21T09:18:00.594Z,1.5
2023-03-21T09:19:00.728Z,1.5
2023-03-21T09:20:00.562Z,1.5
2023-03-21T09:21:00.559Z,1.5
2023-03-21T09:22:00.970Z,1.5
2023-03-21T09:23:00.576Z,1.5
2023-03-21T09:24:00.932Z,1.5
2023-03-21T09:25:00.552Z,1.5
2023-03-21T09:26:00.592Z,1.5
2023-03-21T09:27:00.539Z,1.5
2023-03-21T09:28:00.725Z,1.5
2023-03-21T09:29:00.549Z,1.5
2023-03-21T09:30:00.627Z,1.5
2023-03-21T09:31:00.583Z,1.5
2023-03-21T09:32:00.553Z,1.5
2023-03-21T09:33:01.283Z,1.5
2023-03-21T09:34:00.570Z,1.5
2023-03-21T09:35:00.537Z,1.5
2023-03-21T09:36:00.926Z,1.5
2023-03-21T09:37:00.562Z,1.5
2023-03-21T09:38:00.544Z,1.5
2023-03-21T09:39:00.893Z,1.5
2023-03-21T09:40:00.605Z,1.5
2023-03-21T09:41:10.437Z,1.7
2023-03-21T09:42:00.545Z,1.7
2023-03-21T09:43:10.398Z,1.7
2023-03-21T09:44:10.425Z,1.7
2023-03-21T09:45:07.878Z,1.7
2023-03-21T09:46:06.791Z,1.7
2023-03-21T09:47:10.411Z,1.7
2023-03-21T09:48:00.817Z,1.7
2023-03-21T09:49:02.618Z,1.7
2023-03-21T09:50:12.891Z,1.7
2023-03-21T09:51:01.835Z,1.7
2023-03-21T09:52:03.346Z,2.1
2023-03-21T09:53:02.728Z,2.1
2023-03-21T09:54:04.688Z,2.1
2023-03-21T09:55:01.713Z,2.1
2023-03-21T09:56:01.071Z,2.1
2023-03-21T09:57:04.302Z,2.1
2023-03-21T09:58:04.489Z,2.1
2023-03-21T09:59:00.634Z,2.1
2023-03-21T10:00:03.633Z,2.1
2023-03-21T10:01:00.600Z,2.1
2023-03-21T10:02:01.313Z,2.0
2023-03-21T10:03:03.574Z,2.0
2023-03-21T10:04:04.226Z,2.0
2023-03-21T10:05:01.111Z,2.0
2023-03-21T10:06:02.881Z,2.0
2023-03-21T10:07:01.284Z,2.0
2023-03-21T10:08:03.224Z,2.0
2023-03-21T10:09:00.559Z,2.0
2023-03-21T10:10:01.328Z,2.0
2023-03-21T10:11:03.649Z,2.0
2023-03-21T10:12:00.550Z,1.7
2023-03-21T10:13:00.562Z,1.7
2023-03-21T10:14:10.428Z,1.7
2023-03-21T10:15:00.960Z,1.7
2023-03-21T10:16:08.764Z,1.7
2023-03-21T10:17:10.447Z,1.7
2023-03-21T10:18:02.144Z,1.7
2023-03-21T10:19:02.986Z,1.7
2023-03-21T10:20:00.542Z,1.7
2023-03-21T10:21:01.556Z,1.7
2023-03-21T10:22:02.329Z,1.8
2023-03-21T10:23:03.608Z,1.8
2023-03-21T10:24:00.567Z,1.8
2023-03-21T10:25:00.646Z,1.8
2023-03-21T10:26:04.734Z,1.8
2023-03-21T10:27:01.590Z,1.8
2023-03-21T10:28:01.792Z,1.8
2023-03-21T10:29:01.324Z,1.8
2023-03-21T10:30:00.721Z,1.8
2023-03-21T10:31:02.904Z,1.8
2023-03-21T10:32:00.662Z,1.9
2023-03-21T10:33:02.085Z,1.9
2023-03-21T10:34:02.203Z,1.9
2023-03-21T10:35:01.042Z,1.9
2023-03-21T10:36:03.647Z,1.9
2023-03-21T10:37:01.614Z,1.9
2023-03-21T10:38:00.558Z,1.9
2023-03-21T10:39:05.101Z,1.9
2023-03-21T10:40:00.676Z,1.9
2023-03-21T10:41:00.644Z,1.9
2023-03-21T10:42:00.595Z,2.2
2023-03-21T10:43:10.445Z,2.2
2023-03-21T10:44:06.780Z,2.2
2023-03-21T10:45:00.875Z,2.2
2023-03-21T10:46:08.214Z,2.2
2023-03-21T10:47:05.311Z,2.2
2023-03-21T10:48:06.306Z,2.2
2023-03-21T10:49:01.082Z,2.2
2023-03-21T10:50:09.008Z,2.2
2023-03-21T10:51:01.045Z,2.2
2023-03-21T10:52:02.700Z,2.1
2023-03-21T10:53:01.131Z,2.1
2023-03-21T10:54:04.868Z,2.1
2023-03-21T10:55:06.006Z,2.1
2023-03-21T10:56:01.174Z,2.1
2023-03-21T10:57:03.903Z,2.1
2023-03-21T10:58:03.041Z,2.1
2023-03-21T10:59:01.211Z,2.1
2023-03-21T11:00:01.301Z,2.1
2023-03-21T11:01:01.678Z,2.1
2023-03-21T11:02:02.904Z,1.8
2023-03-21T11:03:00.821Z,1.8
2023-03-21T11:04:05.334Z,1.8
2023-03-21T11:05:05.275Z,1.8
2023-03-21T11:06:02.880Z,1.8
2023-03-21T11:07:03.955Z,1.8
2023-03-21T11:08:03.708Z,1.8
2023-03-21T11:09:03.978Z,1.8
2023-03-21T11:10:14.471Z,1.8
2023-03-21T11:11:01.710Z,1.8
2023-03-21T11:12:01.774Z,1.8
2023-03-21T11:13:02.624Z,1.8
2023-03-21T11:14:01.619Z,1.8
2023-03-21T11:15:10.485Z,1.8
2023-03-21T11:16:09.431Z,1.8
2023-03-21T11:17:00.712Z,1.8
2023-03-21T11:18:10.433Z,1.8
2023-03-21T11:19:02.398Z,1.8
2023-03-21T11:20:02.775Z,1.8
2023-03-21T11:21:03.754Z,1.8
2023-03-21T11:22:07.820Z,2.4
2023-03-21T11:23:02.037Z,2.4
2023-03-21T11:24:01.802Z,2.4
2023-03-21T11:25:01.349Z,2.4
2023-03-21T11:26:01.369Z,2.4
2023-03-21T11:27:04.926Z,2.4
2023-03-21T11:28:04.614Z,2.4
2023-03-21T11:29:08.405Z,2.4
2023-03-21T11:30:01.454Z,2.4
2023-03-21T11:31:02.241Z,2.4
2023-03-21T11:32:08.094Z,2.4
2023-03-21T11:33:01.875Z,2.4
2023-03-21T11:34:04.432Z,2.4
2023-03-21T11:35:00.550Z,2.4
2023-03-21T11:36:03.333Z,2.4
2023-03-21T11:37:01.471Z,2.4
2023-03-21T11:38:00.577Z,2.4
2023-03-21T11:39:10.431Z,2.4
2023-03-21T11:40:10.943Z,2.4
2023-03-21T11:41:01.678Z,2.4
2023-03-21T11:42:00.587Z,2.7
2023-03-21T11:43:01.853Z,2.7
2023-03-21T11:44:01.637Z,2.7
2023-03-21T11:45:04.653Z,2.7
2023-03-21T11:46:04.014Z,2.7
2023-03-21T11:47:01.141Z,2.7
2023-03-21T11:48:02.548Z,2.7
2023-03-21T11:49:00.798Z,2.7
2023-03-21T11:50:04.878Z,2.7
2023-03-21T11:51:03.437Z,2.7
2023-03-21T11:52:00.659Z,2.8
2023-03-21T11:53:10.410Z,2.8
2023-03-21T11:54:01.531Z,2.8
2023-03-21T11:55:08.826Z,2.8
2023-03-21T11:56:00.541Z,2.8
2023-03-21T11:57:03.907Z,2.8
2023-03-21T11:58:13.481Z,2.8
2023-03-21T11:59:10.481Z,2.8
2023-03-21T12:00:10.413Z,2.8
2023-03-21T12:01:10.435Z,2.8
2023-03-21T12:02:03.958Z,3.1
2023-03-21T12:03:04.096Z,3.1
2023-03-21T12:04:10.633Z,3.1
2023-03-21T12:05:00.529Z,3.1
2023-03-21T12:06:04.192Z,3.1
2023-03-21T12:07:10.405Z,3.1
2023-03-21T12:08:10.441Z,3.1
2023-03-21T12:09:08.080Z,3.1
2023-03-21T12:10:01.664Z,3.1
2023-03-21T12:11:07.611Z,3.1
2023-03-21T12:12:03.976Z,3.9
2023-03-21T12:13:09.325Z,3.9
2023-03-21T12:14:10.407Z,3.9
2023-03-21T12:15:04.072Z,3.9
2023-03-21T12:16:10.499Z,3.9
2023-03-21T12:17:00.584Z,3.9
2023-03-21T12:18:03.972Z,3.9
2023-03-21T12:19:10.435Z,3.9
2023-03-21T12:20:07.003Z,3.9
2023-03-21T12:21:08.910Z,3.9
2023-03-21T12:22:10.464Z,2.8
2023-03-21T12:23:08.081Z,2.8
2023-03-21T12:24:10.515Z,2.8
2023-03-21T12:25:06.616Z,2.8
2023-03-21T12:26:10.434Z,2.8
2023-03-21T12:27:10.450Z,2.8
2023-03-21T12:28:10.287Z,2.8
2023-03-21T12:29:06.337Z,2.8
2023-03-21T12:30:10.439Z,2.8
2023-03-21T12:31:10.552Z,2.8
2023-03-21T12:32:06.928Z,2.5
2023-03-21T12:33:10.448Z,2.5
2023-03-21T12:34:09.763Z,2.5
2023-03-21T12:35:07.234Z,2.5
2023-03-21T12:36:00.561Z,2.5
2023-03-21T12:37:01.589Z,2.5
2023-03-21T12:38:10.588Z,2.5
2023-03-21T12:39:01.583Z,2.5
2023-03-21T12:40:08.173Z,2.5
2023-03-21T12:41:00.543Z,2.5
2023-03-21T12:42:10.425Z,2.1
2023-03-21T12:43:06.720Z,2.1
2023-03-21T12:44:04.614Z,2.1
2023-03-21T12:45:11.560Z,2.1
2023-03-21T12:46:03.054Z,2.1
2023-03-21T12:47:08.357Z,2.1
2023-03-21T12:48:10.483Z,2.1
2023-03-21T12:49:02.604Z,2.1
2023-03-21T12:50:08.170Z,2.1
2023-03-21T12:51:01.691Z,2.1
2023-03-21T12:52:04.070Z,2.2
2023-03-21T12:53:04.705Z,2.2
2023-03-21T12:54:05.097Z,2.2
2023-03-21T12:55:05.437Z,2.2
2023-03-21T12:56:03.094Z,2.2
2023-03-21T12:57:00.519Z,2.2
2023-03-21T12:58:03.790Z,2.2
2023-03-21T12:59:10.421Z,2.2
2023-03-21T13:00:10.408Z,2.2
2023-03-21T13:01:02.629Z,2.2
2023-03-21T13:02:07.773Z,1.6
2023-03-21T13:03:03.898Z,1.6
2023-03-21T13:04:10.453Z,1.6
2023-03-21T13:05:03.915Z,1.6
2023-03-21T13:06:01.821Z,1.6
2023-03-21T13:07:02.310Z,1.6
2023-03-21T13:08:05.954Z,1.6
2023-03-21T13:09:01.592Z,1.6
2023-03-21T13:10:01.310Z,1.6
2023-03-21T13:11:01.382Z,1.6
2023-03-21T13:12:06.015Z,1.3
2023-03-21T13:13:04.693Z,1.3
2023-03-21T13:14:05.695Z,1.3
2023-03-21T13:15:15.225Z,1.3
2023-03-21T13:16:00.614Z,1.3
2023-03-21T13:17:05.554Z,1.3
2023-03-21T13:18:03.551Z,1.3
2023-03-21T13:19:01.578Z,1.3
2023-03-21T13:20:04.278Z,1.3
2023-03-21T13:21:02.505Z,1.3
2023-03-21T13:22:10.388Z,1.6
2023-03-21T13:23:00.572Z,1.6
2023-03-21T13:24:02.300Z,1.6
2023-03-21T13:25:06.596Z,1.6
2023-03-21T13:26:00.550Z,1.6
2023-03-21T13:27:02.363Z,1.6
2023-03-21T13:28:03.111Z,1.6
2023-03-21T13:29:00.730Z,1.6
2023-03-21T13:30:04.084Z,1.6
2023-03-21T13:31:10.477Z,1.6
2023-03-21T13:32:09.365Z,1.6
2023-03-21T13:33:10.417Z,1.6
2023-03-21T13:34:00.553Z,1.6
2023-03-21T13:35:02.309Z,1.6
2023-03-21T13:36:04.918Z,1.6
2023-03-21T13:37:01.775Z,1.6
2023-03-21T13:38:10.593Z,1.6
2023-03-21T13:39:01.797Z,1.6
2023-03-21T13:40:03.987Z,1.6